This is the latest recevied weather packets stored in our database for station/object LU5DTF-1. If no packets are shown the sender has not sent any weather packets the latest 10 day(s).
| Time | Temp. | Humidity | Pressure | Rain* | Wind** | Luminosity | Snow |
|---|---|---|---|---|---|---|---|
| 1777997101 | 20.56° C | 58% | 1013.4 hPa | 0 mm | - | - | - |
| 1777995601 | 18.89° C | 65% | 1013.5 hPa | 0 mm | - | - | - |
| 1777995301 | 19.44° C | 64% | 1013.3 hPa | 0 mm | - | - | - |
| 1777995001 | 19.44° C | 62% | 1013.3 hPa | 0 mm | - | - | - |
| 1777994701 | 20° C | 60% | 1013.2 hPa | 0 mm | - | - | - |
| 1777994401 | 20° C | 59% | 1013.5 hPa | 0 mm | - | - | - |
| 1777994101 | 20° C | 60% | 1013.5 hPa | 0 mm | - | - | - |
| 1777993802 | 19.44° C | 61% | 1013.5 hPa | 0 mm | - | - | - |
| 1777992003 | 18.89° C | 62% | 1013.6 hPa | 0 mm | - | - | - |
| 1777991703 | 18.33° C | 62% | 1013.5 hPa | 0 mm | - | - | - |
| 1777991103 | 18.33° C | 62% | 1013.4 hPa | 0 mm | - | - | - |
| 1777990803 | 18.33° C | 62% | 1013.4 hPa | 0 mm | - | - | - |
| 1777990503 | 18.33° C | 62% | 1013.4 hPa | 0 mm | - | - | - |
| 1777989903 | 17.78° C | 63% | 1013.2 hPa | 0 mm | - | - | - |
| 1777989303 | 17.78° C | 63% | 1013.4 hPa | 0 mm | - | - | - |
| 1777988403 | 17.22° C | 65% | 1013.2 hPa | 0 mm | - | - | - |
| 1777988103 | 17.22° C | 67% | 1013.3 hPa | 0 mm | - | - | - |
| 1777987803 | 17.22° C | 67% | 1013.2 hPa | 0 mm | - | - | - |
| 1777987503 | 16.67° C | 68% | 1013.1 hPa | 0 mm | - | - | - |
| 1777987203 | 16.67° C | 72% | 1013 hPa | 0 mm | - | - | - |
| 1777986903 | 16.67° C | 73% | 1013.1 hPa | 0 mm | - | - | - |
| 1777986303 | 16.67° C | 74% | 1013.1 hPa | 0 mm | - | - | - |
| 1777984803 | 17.22° C | 66% | 1013 hPa | 0 mm | - | - | - |
| 1777984503 | 16.67° C | 66% | 1013 hPa | 0 mm | - | - | - |
| 1777984203 | 16.67° C | 66% | 1013 hPa | 0 mm | - | - | - |
* Rain latest hour (hover to see other rain measurements)
** Current wind speed in m/s (hover to see current wind gust speed)